Time;durP1;ratioP1;P1;durP2;ratioP2;P2;SDS_P1;SDS_P2;PMS_P1;PMS_P2;Temp;Humidity;BMP_temperature;BMP_pressure;BME280_temperature;BME280_humidity;BME280_pressure;Samples;Min_cycle;Max_cycle;Signal;HPM_P1;HPM_P2
2021/03/22 00:00:50;;;;;;;17.30;5.20;;;;;;;-0.32;81.50;101570.63;5047922;28;19913;-64
2021/03/22 00:03:18;;;;;;;21.60;5.43;;;;;;;-0.31;81.39;101577.56;5031996;28;20051;-64
2021/03/22 00:05:43;;;;;;;21.77;5.25;;;;;;;-0.37;80.88;101570.00;5031185;28;20037;-64
2021/03/22 00:08:10;;;;;;;28.23;4.53;;;;;;;-0.32;80.91;101575.88;5030788;28;20033;-64
2021/03/22 00:10:40;;;;;;;21.75;4.18;;;;;;;-0.32;80.78;101570.63;5032002;28;20041;-64
2021/03/22 00:13:05;;;;;;;14.38;4.28;;;;;;;-0.34;80.81;101575.94;5032007;28;20037;-64
2021/03/22 00:15:32;;;;;;;27.03;5.40;;;;;;;-0.30;82.07;101574.06;5032030;28;20095;-64
2021/03/22 00:17:59;;;;;;;23.27;5.00;;;;;;;-0.32;81.35;101571.47;5030678;28;20044;-64
2021/03/22 00:20:26;;;;;;;30.45;5.00;;;;;;;-0.36;81.24;101579.56;5047365;28;20037;-64
2021/03/22 00:22:51;;;;;;;30.45;5.50;;;;;;;-0.38;80.88;101586.66;5047501;28;20033;-64
2021/03/22 00:25:18;;;;;;;21.40;4.70;;;;;;;-0.40;80.95;101581.47;5031831;28;20041;-64
2021/03/22 00:27:43;;;;;;;29.05;5.25;;;;;;;-0.38;81.02;101577.00;5031614;28;20057;-64
2021/03/22 00:30:14;;;;;;;14.80;4.70;;;;;;;-0.30;81.33;101585.38;5031785;28;20029;-64
2021/03/22 00:32:40;;;;;;;18.73;3.90;;;;;;;-0.32;81.68;101581.13;5031726;28;20036;-64
2021/03/22 00:35:05;;;;;;;31.80;6.73;;;;;;;-0.37;81.61;101588.38;5047238;28;20037;-64
2021/03/22 00:37:31;;;;;;;28.98;5.20;;;;;;;-0.45;81.54;101594.81;5047090;28;20370;-64
2021/03/22 00:39:56;;;;;;;16.50;3.87;;;;;;;-0.49;81.78;101598.50;5047265;28;20037;-64
2021/03/22 00:42:21;;;;;;;34.33;5.60;;;;;;;-0.54;82.21;101600.50;5031523;28;20417;-64
2021/03/22 00:44:47;;;;;;;24.07;4.67;;;;;;;-0.54;82.93;101603.13;5047235;28;20230;-64
2021/03/22 00:47:12;;;;;;;35.57;5.70;;;;;;;-0.55;82.80;101603.19;5030553;28;20033;-64
2021/03/22 00:49:38;;;;;;;24.45;4.90;;;;;;;-0.57;82.89;101600.63;5031171;28;20653;-64
2021/03/22 00:52:04;;;;;;;26.37;5.20;;;;;;;-0.57;83.49;101602.41;5047023;28;20033;-64
2021/03/22 00:54:29;;;;;;;29.63;6.72;;;;;;;-0.55;83.80;101611.06;5031452;28;20284;-64
2021/03/22 00:56:55;;;;;;;24.67;4.60;;;;;;;-0.58;83.76;101608.59;5047073;28;20112;-64
2021/03/22 00:59:20;;;;;;;;;;;;;;;-0.57;83.81;101608.50;5031536;28;20466;-64
2021/03/22 01:01:46;;;;;;;25.73;4.57;;;;;;;-0.51;84.30;101615.25;5031286;28;19913;-64
2021/03/22 01:04:11;;;;;;;15.60;4.13;;;;;;;-0.61;83.98;101608.69;5031186;28;20355;-64
2021/03/22 01:06:37;;;;;;;26.37;5.13;;;;;;;-0.61;84.57;101622.66;5031420;28;20136;-64
2021/03/22 01:09:03;;;;;;;16.35;5.38;;;;;;;-0.64;84.25;101612.31;5046685;28;20053;-64
2021/03/22 01:11:29;;;;;;;;;;;;;;;-0.63;83.97;101621.91;5047337;28;20059;-64
2021/03/22 01:13:57;;;;;;;21.63;4.35;;;;;;;-0.63;84.68;101614.03;5030284;28;20601;-65
2021/03/22 01:16:25;;;;;;;28.45;5.07;;;;;;;-0.65;84.41;101605.38;5031219;28;20061;-74
2021/03/22 01:18:53;;;;;;;27.27;5.13;;;;;;;-0.68;84.25;101609.00;5030839;28;20362;-75
2021/03/22 01:21:21;;;;;;;24.38;5.85;;;;;;;-0.63;84.23;101608.78;5030227;28;20443;-74
2021/03/22 01:23:47;;;;;;;23.83;5.57;;;;;;;-0.60;84.10;101608.63;5031110;28;20069;-74
2021/03/22 01:26:14;;;;;;;17.88;4.72;;;;;;;-0.65;84.28;101606.22;5031102;28;20117;-74
2021/03/22 01:28:40;;;;;;;25.02;4.38;;;;;;;-0.70;84.29;101596.88;5031755;28;20048;-74
2021/03/22 01:31:07;;;;;;;27.40;5.32;;;;;;;-0.69;85.21;101606.44;5035055;28;20033;-75
2021/03/22 01:33:35;;;;;;;21.27;5.38;;;;;;;-0.71;84.87;101606.50;5017581;28;20048;-73
2021/03/22 01:36:12;;;;;;;25.60;4.85;;;;;;;-0.76;84.54;101605.84;5050808;28;20462;-75
2021/03/22 01:38:37;;;;;;;31.13;5.60;;;;;;;-0.80;83.96;101596.41;5034782;28;20083;-74
2021/03/22 01:41:20;;;;;;;15.63;5.60;;;;;;;-0.82;84.09;101600.91;5034964;28;20116;-74
2021/03/22 01:44:07;;;;;;;21.05;5.45;;;;;;;-0.83;84.28;101599.19;5050548;28;20038;-68
2021/03/22 01:46:33;;;;;;;25.33;4.47;;;;;;;-0.83;84.31;101595.72;5034846;28;20068;-64
2021/03/22 01:49:01;;;;;;;18.27;4.72;;;;;;;-0.88;84.01;101593.28;5050176;28;20041;-64
2021/03/22 01:51:27;;;;;;;22.55;4.00;;;;;;;-0.87;83.89;101590.63;5050312;28;20132;-64
2021/03/22 01:53:52;;;;;;;38.20;5.65;;;;;;;-0.87;83.73;101592.34;5034691;28;20132;-64
2021/03/22 01:56:24;;;;;;;38.38;6.72;;;;;;;-0.88;83.77;101593.28;5034324;28;20488;-64
2021/03/22 01:58:50;;;;;;;19.50;3.70;;;;;;;-0.92;83.62;101587.31;5050165;28;20127;-74
2021/03/22 02:01:16;;;;;;;;;;;;;;;-0.98;83.22;101590.22;5050572;28;20175;-75
2021/03/22 02:03:42;;;;;;;15.02;3.25;;;;;;;-1.03;83.53;101586.09;5050178;28;19999;-74
2021/03/22 02:06:07;;;;;;;21.45;4.65;;;;;;;-1.08;83.34;101579.31;5050100;28;20037;-74
2021/03/22 02:08:37;;;;;;;23.33;5.45;;;;;;;-1.13;83.55;101580.41;5034261;28;20037;-74
2021/03/22 02:11:04;;;;;;;29.08;4.28;;;;;;;-1.14;83.83;101582.19;5034332;28;20033;-75
2021/03/22 02:13:32;;;;;;;;;;;;;;;-1.13;85.06;101580.41;5050481;28;20151;-75
2021/03/22 02:16:15;;;;;;;29.40;5.50;;;;;;;-1.12;85.40;101576.88;5034224;28;19924;-75
2021/03/22 02:18:53;;;;;;;24.98;5.10;;;;;;;-1.17;85.04;101576.22;5034046;28;20053;-74
2021/03/22 02:21:33;;;;;;;51.50;5.53;;;;;;;-1.18;85.14;101571.91;5034141;28;20180;-73
2021/03/22 02:24:23;;;;;;;20.77;4.60;;;;;;;-1.02;85.51;101575.56;5034187;28;20037;-74
2021/03/22 02:27:04;;;;;;;24.38;5.00;;;;;;;-1.01;85.62;101577.25;5034050;28;20128;-74
2021/03/22 02:30:03;;;;;;;27.00;6.68;;;;;;;-1.07;85.69;101574.91;5033718;28;20033;-75
2021/03/22 02:32:36;;;;;;;32.90;5.13;;;;;;;-1.17;85.20;101570.97;5010211;28;20049;-75
2021/03/22 02:35:27;;;;;;;28.15;5.40;;;;;;;-1.19;86.10;101578.06;5016554;28;20454;-74
2021/03/22 02:38:02;;;;;;;22.50;4.40;;;;;;;-1.21;86.22;101572.88;5033619;28;20107;-75
2021/03/22 02:40:59;;;;;;;19.55;6.20;;;;;;;-1.26;86.52;101574.84;5031837;28;20672;-75
2021/03/22 02:43:25;;;;;;;24.83;5.85;;;;;;;-1.23;86.62;101571.25;5025458;28;20455;-74
2021/03/22 02:45:55;;;;;;;33.35;5.65;;;;;;;-1.18;86.54;101580.59;5033836;28;20030;-74
2021/03/22 02:48:27;;;;;;;24.13;4.57;;;;;;;-1.13;86.78;101580.41;5033417;28;20041;-75
2021/03/22 02:51:02;;;;;;;26.70;6.63;;;;;;;-1.14;86.83;101570.84;5033810;28;20052;-74
2021/03/22 02:53:52;;;;;;;30.90;7.10;;;;;;;-1.06;86.88;101576.59;5032385;28;20041;-75
2021/03/22 02:56:31;;;;;;;59.53;6.35;;;;;;;-1.08;86.69;101570.56;5032591;28;20156;-74
2021/03/22 02:59:03;;;;;;;15.75;4.05;;;;;;;-1.06;87.04;101585.31;5048777;28;20041;-75
2021/03/22 03:01:38;;;;;;;43.78;6.30;;;;;;;-1.15;86.83;101577.00;5033524;28;20048;-75
2021/03/22 03:04:05;;;;;;;20.90;5.80;;;;;;;-1.18;87.46;101574.53;5049139;28;20077;-75
2021/03/22 03:07:01;;;;;;;25.42;5.50;;;;;;;-1.03;87.95;101586.09;5033437;28;20033;-75
2021/03/22 03:09:30;;;;;;;25.33;5.10;;;;;;;-0.97;88.00;101591.91;5023537;28;20041;-75
2021/03/22 03:12:07;;;;;;;35.22;7.28;;;;;;;-0.92;88.29;101592.56;5033363;28;20359;-75
2021/03/22 03:14:32;;;;;;;26.58;4.75;;;;;;;-0.84;88.14;101600.13;5016046;28;20111;-74
2021/03/22 03:16:57;;;;;;;32.90;6.17;;;;;;;-0.80;88.37;101600.81;5033265;28;20045;-75
2021/03/22 03:19:23;;;;;;;28.63;6.90;;;;;;;-0.89;87.90;101597.69;5048452;28;20035;-75
2021/03/22 03:21:48;;;;;;;26.73;5.93;;;;;;;-0.97;87.38;101604.19;5048804;28;20131;-74
2021/03/22 03:24:13;;;;;;;34.13;9.13;;;;;;;-0.96;87.50;101606.75;5048783;28;20129;-75
2021/03/22 03:26:39;;;;;;;23.75;6.65;;;;;;;-0.95;87.66;101613.69;5048718;28;20136;-75
2021/03/22 03:29:05;;;;;;;26.83;5.53;;;;;;;-0.98;87.46;101613.81;5048413;28;20444;-75
2021/03/22 03:31:31;;;;;;;;;;;;;;;-1.02;87.26;101617.50;5032521;28;20049;-75
2021/03/22 03:33:57;;;;;;;23.00;5.03;;;;;;;-1.15;86.61;101616.31;5032868;28;19998;-75
2021/03/22 03:36:22;;;;;;;33.23;6.53;;;;;;;-1.25;86.66;101625.50;5032808;28;20106;-64
2021/03/22 03:38:47;;;;;;;34.87;7.03;;;;;;;-1.25;86.80;101628.94;5032430;28;20458;-64
2021/03/22 03:41:13;;;;;;;25.08;4.75;;;;;;;-1.24;87.05;101621.94;5048275;28;20056;-64
2021/03/22 03:43:38;;;;;;;20.83;5.17;;;;;;;-1.28;87.07;101626.47;5032449;28;20120;-64
2021/03/22 03:46:04;;;;;;;23.73;5.17;;;;;;;-1.32;86.86;101619.66;5048231;28;20029;-64
2021/03/22 03:48:29;;;;;;;28.63;5.43;;;;;;;-1.37;86.67;101627.69;5031266;28;20298;-64
2021/03/22 03:50:57;;;;;;;21.60;4.57;;;;;;;-1.45;86.30;101634.16;5032399;28;20049;-64
2021/03/22 03:53:24;;;;;;;35.35;8.32;;;;;;;-1.49;86.86;101638.69;5047829;28;20025;-64
2021/03/22 03:55:49;;;;;;;29.80;5.85;;;;;;;-1.55;87.22;101628.47;5031355;28;20037;-64
2021/03/22 03:58:15;;;;;;;32.70;6.28;;;;;;;-1.58;87.20;101644.31;5032039;28;20091;-64
2021/03/22 04:00:43;;;;;;;29.15;6.40;;;;;;;-1.62;87.35;101634.88;5032378;28;20029;-64
2021/03/22 04:03:18;;;;;;;33.75;7.43;;;;;;;-1.70;87.38;101643.88;5031340;28;20128;-64
2021/03/22 04:05:44;;;;;;;28.42;7.55;;;;;;;-1.75;87.54;101642.38;5047849;28;20123;-64
2021/03/22 04:08:10;;;;;;;38.33;6.50;;;;;;;-1.86;87.18;101650.66;5047674;28;20108;-64
2021/03/22 04:10:35;;;;;;;;;;;;;;;-1.93;86.76;101649.19;5032443;28;20069;-64
2021/03/22 04:13:01;;;;;;;38.38;5.07;;;;;;;-1.92;87.10;101648.25;5032072;28;19982;-64
2021/03/22 04:15:26;;;;;;;26.87;5.73;;;;;;;-2.05;86.74;101654.91;5032043;28;20034;-64
2021/03/22 04:17:51;;;;;;;26.00;6.37;;;;;;;-2.10;86.37;101651.63;5047380;28;20288;-64
2021/03/22 04:20:17;;;;;;;26.17;6.17;;;;;;;-2.18;86.51;101652.78;5031860;28;20044;-64
2021/03/22 04:22:43;;;;;;;30.58;6.07;;;;;;;-2.18;86.82;101651.88;5031574;28;20037;-64
2021/03/22 04:25:09;;;;;;;27.77;6.22;;;;;;;-2.09;87.50;101655.94;5047326;28;20098;-64
2021/03/22 04:27:34;;;;;;;28.13;5.78;;;;;;;-2.17;87.03;101658.84;5031510;28;20482;-64
2021/03/22 04:29:59;;;;;;;25.30;6.63;;;;;;;-2.16;87.13;101656.16;5031802;28;20073;-64
2021/03/22 04:32:25;;;;;;;24.07;5.67;;;;;;;-2.15;87.82;101665.72;5030705;28;20036;-64
2021/03/22 04:34:50;;;;;;;36.97;8.15;;;;;;;-2.17;87.98;101666.69;5047249;28;20292;-64
2021/03/22 04:37:16;;;;;;;24.63;5.22;;;;;;;-2.16;88.18;101668.38;5031720;28;20132;-64
2021/03/22 04:39:41;;;;;;;36.38;7.95;;;;;;;-2.22;87.79;101666.88;5030359;28;20088;-64
2021/03/22 04:42:07;;;;;;;33.07;6.77;;;;;;;-2.26;87.59;101667.88;5030678;28;20461;-64
2021/03/22 04:44:32;;;;;;;32.88;7.43;;;;;;;-2.23;88.03;101673.00;5030660;28;20122;-64
2021/03/22 04:46:58;;;;;;;38.67;7.47;;;;;;;-2.25;87.54;101673.97;5031651;28;20060;-64
2021/03/22 04:49:23;;;;;;;24.60;6.00;;;;;;;-2.37;87.09;101675.28;5031145;28;20044;-64
2021/03/22 04:51:48;;;;;;;26.90;6.33;;;;;;;-2.39;87.72;101677.09;5031642;28;20033;-64
2021/03/22 04:54:14;;;;;;;28.57;7.43;;;;;;;-2.38;87.54;101678.81;5031435;28;20782;-64
2021/03/22 04:56:39;;;;;;;24.10;5.97;;;;;;;-2.38;87.41;101674.44;5031278;28;20518;-64
2021/03/22 04:59:05;;;;;;;33.20;8.30;;;;;;;-2.28;87.90;101672.31;5031120;28;20322;-64
2021/03/22 05:01:30;;;;;;;33.72;8.45;;;;;;;-2.30;87.64;101671.53;5030562;28;20276;-74
2021/03/22 05:03:56;;;;;;;31.10;7.30;;;;;;;-2.36;87.27;101677.00;5030587;28;20462;-74
2021/03/22 05:06:21;;;;;;;28.13;5.72;;;;;;;-2.37;87.09;101675.28;5046994;28;20122;-75
2021/03/22 05:08:46;;;;;;;32.83;6.25;;;;;;;-2.35;87.57;101671.69;5031081;28;20119;-75
2021/03/22 05:11:12;;;;;;;27.85;6.85;;;;;;;-2.30;87.82;101676.75;5031382;28;20980;-75
2021/03/22 05:13:38;;;;;;;22.52;6.30;;;;;;;-2.36;87.75;101680.47;5031413;28;20029;-74
2021/03/22 05:16:03;;;;;;;37.58;7.70;;;;;;;-2.42;87.46;101692.91;5031534;28;20348;-64
2021/03/22 05:18:31;;;;;;;43.67;7.72;;;;;;;-2.39;87.74;101687.53;5046454;28;20069;-64
2021/03/22 05:21:02;;;;;;;28.05;6.40;;;;;;;-2.40;87.87;101691.09;5030236;28;20108;-64
2021/03/22 05:23:29;;;;;;;32.72;7.47;;;;;;;-2.37;87.82;101697.03;5031066;28;20041;-64
2021/03/22 05:25:56;;;;;;;45.83;6.60;;;;;;;-2.42;87.40;101692.91;5031024;28;20215;-64
2021/03/22 05:28:24;;;;;;;22.63;6.53;;;;;;;-2.39;87.66;101688.44;5013383;28;20029;-64
2021/03/22 05:30:50;;;;;;;35.33;6.63;;;;;;;-2.36;87.92;101690.06;5030949;28;20437;-64
2021/03/22 05:33:16;;;;;;;;;;;;;;;-2.29;88.02;101694.16;5031427;28;20041;-64
2021/03/22 05:35:43;;;;;;;26.98;5.70;;;;;;;-2.31;87.73;101698.59;5046388;28;20476;-64
2021/03/22 05:38:10;;;;;;;38.50;9.38;;;;;;;-2.33;87.42;101705.66;5029876;28;20370;-64
2021/03/22 05:40:43;;;;;;;;;;;;;;;-2.27;87.68;101710.66;5031331;28;20041;-63
2021/03/22 05:43:20;;;;;;;21.77;4.65;;;;;;;-2.26;87.72;101714.97;5046561;28;19975;-63
2021/03/22 05:46:07;;;;;;;27.67;9.25;;;;;;;-2.26;87.59;101714.97;5030886;28;20059;-63
2021/03/22 05:49:00;;;;;;;39.72;11.07;;;;;;;-2.24;87.36;101717.53;5030636;28;20022;-64
2021/03/22 05:51:52;;;;;;;37.17;8.70;;;;;;;-2.21;87.02;101722.66;5029923;28;20070;-63
2021/03/22 05:54:55;;;;;;;30.25;8.20;;;;;;;-2.13;87.64;101726.69;5046511;28;20041;-63
2021/03/22 05:57:35;;;;;;;37.38;7.63;;;;;;;-2.08;87.31;101720.41;5046282;28;20042;-63
2021/03/22 06:00:03;;;;;;;30.13;8.30;;;;;;;-2.10;87.03;101730.13;5046461;28;20048;-63
2021/03/22 06:02:48;;;;;;;27.85;6.50;;;;;;;-2.13;86.78;101726.69;5045703;28;20053;-63
2021/03/22 06:05:32;;;;;;;37.83;7.38;;;;;;;-1.98;87.32;101732.28;5030725;28;20103;-64
2021/03/22 06:08:08;;;;;;;27.60;8.40;;;;;;;-1.86;87.29;101731.78;5046116;28;20041;-64
2021/03/22 06:10:38;;;;;;;;;;;;;;;-1.76;86.91;101741.00;5046542;28;20060;-64
2021/03/22 06:13:05;;;;;;;35.90;7.80;;;;;;;-1.47;87.42;101736.41;5030658;28;19964;-64
2021/03/22 06:15:52;;;;;;;30.52;7.70;;;;;;;-1.36;87.66;101742.06;5032768;28;20064;-64
2021/03/22 06:18:30;;;;;;;28.63;7.47;;;;;;;-1.17;87.51;101743.94;5016581;28;20037;-64
2021/03/22 06:20:58;;;;;;;32.92;6.00;;;;;;;-1.16;87.52;101748.28;5033996;28;20477;-64
2021/03/22 06:23:32;;;;;;;30.30;8.10;;;;;;;-0.76;88.23;101751.84;5049794;28;20368;-64
2021/03/22 06:25:58;;;;;;;30.15;6.57;;;;;;;0.08;87.58;101748.13;5049793;28;20084;-64
2021/03/22 06:28:28;;;;;;;29.48;5.95;;;;;;;0.58;84.58;101757.19;5032983;28;20088;-64
2021/03/22 06:31:05;;;;;;;25.35;5.65;;;;;;;1.08;82.33;101750.38;5049726;28;20048;-64
2021/03/22 06:33:42;;;;;;;40.33;6.45;;;;;;;1.09;83.12;101750.31;5033883;28;20029;-64
2021/03/22 06:36:11;;;;;;;29.60;6.90;;;;;;;1.16;83.85;101745.59;5049529;28;20837;-64
2021/03/22 06:38:36;;;;;;;34.78;8.93;;;;;;;1.67;84.44;101749.13;5049194;28;20040;-64
2021/03/22 06:41:31;;;;;;;25.45;7.35;;;;;;;2.25;80.93;101751.25;5032907;28;20037;-64
2021/03/22 06:43:59;;;;;;;47.60;8.40;;;;;;;2.03;81.17;101751.56;5028752;28;20144;-64
2021/03/22 06:46:25;;;;;;;34.53;6.43;;;;;;;1.59;81.62;101761.81;5033759;28;20373;-64
2021/03/22 06:48:58;;;;;;;47.65;9.57;;;;;;;1.54;82.76;101763.84;5033377;28;20049;-64
2021/03/22 06:51:24;;;;;;;39.50;10.45;;;;;;;1.26;83.94;101768.75;5033668;28;20030;-64
2021/03/22 06:53:58;;;;;;;31.48;8.07;;;;;;;1.09;84.58;101766.09;5033509;28;20030;-64
2021/03/22 06:56:38;;;;;;;36.65;8.82;;;;;;;0.92;85.87;101771.34;5032320;28;20041;-64
2021/03/22 06:59:11;;;;;;;61.30;10.55;;;;;;;0.76;86.06;101771.22;5032341;28;20081;-64
2021/03/22 07:01:38;;;;;;;46.63;9.68;;;;;;;0.86;86.52;101776.88;5015923;28;20110;-64
2021/03/22 07:04:23;;;;;;;40.47;8.43;;;;;;;0.73;86.82;101776.66;5033394;28;20407;-64
2021/03/22 07:07:14;;;;;;;37.47;8.65;;;;;;;0.81;87.21;101775.31;5015914;28;20075;-64
2021/03/22 07:09:54;;;;;;;45.28;10.75;;;;;;;0.62;87.90;101772.72;5048604;28;20033;-64
2021/03/22 07:12:23;;;;;;;32.85;8.30;;;;;;;0.75;88.06;101780.91;5033320;28;20037;-64
2021/03/22 07:14:49;;;;;;;43.33;10.40;;;;;;;0.74;88.04;101778.34;5033201;28;20040;-64
2021/03/22 07:17:18;;;;;;;42.97;11.07;;;;;;;0.84;87.78;101775.19;5032195;28;20041;-64
2021/03/22 07:20:03;;;;;;;45.55;10.10;;;;;;;0.82;88.02;101777.03;5032717;28;20037;-64
2021/03/22 07:22:29;;;;;;;36.00;9.30;;;;;;;0.94;88.24;101770.34;5032113;28;20454;-64
2021/03/22 07:25:01;;;;;;;33.88;9.25;;;;;;;1.12;87.83;101775.59;5032963;28;20288;-64
2021/03/22 07:27:41;;;;;;;38.85;8.73;;;;;;;1.18;86.88;101784.03;5047799;28;20378;-64
2021/03/22 07:30:15;;;;;;;44.13;9.35;;;;;;;1.25;87.14;101780.19;5032931;28;20036;-64
2021/03/22 07:32:49;;;;;;;39.33;9.18;;;;;;;1.31;87.16;101792.19;5048562;28;20034;-64
2021/03/22 07:35:21;;;;;;;37.15;9.02;;;;;;;1.51;86.94;101779.78;5048587;28;20077;-64
2021/03/22 07:37:56;;;;;;;43.95;10.10;;;;;;;1.63;86.03;101780.00;5048187;28;20037;-64
2021/03/22 07:40:49;;;;;;;35.10;8.55;;;;;;;1.71;85.99;101781.38;5032822;28;20067;-64
2021/03/22 07:43:44;;;;;;;37.65;8.60;;;;;;;1.69;85.60;101778.84;5048357;28;20037;-64
2021/03/22 07:46:46;;;;;;;32.20;9.98;;;;;;;1.70;85.27;101780.53;5032632;28;20029;-64
2021/03/22 07:49:36;;;;;;;26.42;9.85;;;;;;;1.50;84.95;101786.84;5032304;28;20029;-64
2021/03/22 07:52:16;;;;;;;31.48;8.30;;;;;;;1.50;85.72;101775.44;5031606;28;20051;-64
2021/03/22 07:54:56;;;;;;;24.13;7.85;;;;;;;1.24;85.59;101783.75;5047927;28;20439;-64
2021/03/22 07:57:45;;;;;;;25.27;7.65;;;;;;;1.37;85.94;101772.59;5032297;28;20034;-64
2021/03/22 08:00:32;;;;;;;32.22;10.07;;;;;;;1.46;85.81;101782.66;5032379;28;20033;-64
2021/03/22 08:03:15;;;;;;;27.17;9.80;;;;;;;1.52;85.33;101781.47;5031139;28;20466;-64
2021/03/22 08:06:01;;;;;;;27.05;7.78;;;;;;;1.58;85.16;101792.56;5032266;28;20045;-64
2021/03/22 08:08:48;;;;;;;32.83;8.23;;;;;;;1.58;85.47;101797.81;5030513;28;20041;-64
2021/03/22 08:11:25;;;;;;;27.77;8.27;;;;;;;1.59;85.18;101794.28;5031977;28;20048;-64
2021/03/22 08:13:57;;;;;;;26.63;8.05;;;;;;;1.55;85.58;101783.97;5047513;28;20038;-64
2021/03/22 08:16:44;;;;;;;26.88;8.15;;;;;;;1.74;85.53;101795.25;5046920;28;20037;-64
2021/03/22 08:19:27;;;;;;;24.73;8.32;;;;;;;1.75;84.89;101785.56;5047283;28;20048;-64
2021/03/22 08:22:08;;;;;;;36.15;7.88;;;;;;;1.61;83.91;101783.66;5031670;28;20117;-64
2021/03/22 08:25:17;;;;;;;30.15;8.52;;;;;;;1.68;84.50;101788.50;5031618;28;20037;-64
2021/03/22 08:28:09;;;;;;;29.70;8.20;;;;;;;1.55;84.16;101792.72;5030595;28;20041;-64
2021/03/22 08:30:58;;;;;;;25.25;8.45;;;;;;;1.72;84.18;101796.25;5026893;28;20049;-64
2021/03/22 08:33:30;;;;;;;27.85;8.15;;;;;;;2.00;84.51;101801.78;5047223;28;20040;-64
2021/03/22 08:36:03;;;;;;;23.48;8.10;;;;;;;2.17;82.85;101794.75;5030463;28;20044;-64
2021/03/22 08:38:50;;;;;;;29.08;9.10;;;;;;;2.19;82.59;101808.69;5045933;28;20040;-64
2021/03/22 08:41:29;;;;;;;17.02;6.85;;;;;;;2.18;82.30;101815.75;5031583;28;20132;-64
2021/03/22 08:44:15;;;;;;;22.50;7.10;;;;;;;2.47;81.72;101808.06;5031033;28;20030;-64
2021/03/22 08:46:57;;;;;;;23.80;8.27;;;;;;;2.50;81.41;101821.91;5046914;28;20029;-64
2021/03/22 08:50:09;;;;;;;23.40;9.02;;;;;;;2.59;81.24;101822.34;5046792;28;20045;-64
2021/03/22 08:52:40;;;;;;;23.80;7.82;;;;;;;2.75;79.71;101820.56;5031271;28;20025;-64
2021/03/22 08:55:12;;;;;;;28.52;8.88;;;;;;;2.92;80.06;101833.63;5046616;28;20055;-64
2021/03/22 08:57:52;;;;;;;17.15;8.05;;;;;;;3.35;78.29;101833.84;5046610;28;20049;-64
2021/03/22 09:00:45;;;;;;;23.08;7.65;;;;;;;3.52;77.15;101839.94;5030389;28;20038;-64
2021/03/22 09:03:13;;;;;;;20.20;6.93;;;;;;;4.44;75.83;101834.34;5031225;28;20084;-64
2021/03/22 09:05:40;;;;;;;20.42;6.97;;;;;;;4.50;73.10;101826.03;5031002;28;20037;-64
2021/03/22 09:08:19;;;;;;;21.58;7.80;;;;;;;4.74;71.30;101820.97;5046507;28;20451;-64
2021/03/22 09:10:45;;;;;;;20.05;6.78;;;;;;;5.42;70.29;101827.13;5046829;28;20367;-64
2021/03/22 09:13:25;;;;;;;18.30;6.28;;;;;;;5.31;68.44;101827.00;5031017;28;20033;-64
2021/03/22 09:16:13;;;;;;;19.23;5.70;;;;;;;6.18;66.39;101821.09;5046370;28;20095;-64
2021/03/22 09:19:08;;;;;;;19.27;5.95;;;;;;;6.19;65.82;101809.50;5029735;28;20041;-64
2021/03/22 09:21:34;;;;;;;16.27;5.78;;;;;;;6.85;63.63;101825.16;5024605;28;20057;-64
2021/03/22 09:24:00;;;;;;;17.95;5.90;;;;;;;6.54;64.69;101822.06;5030967;28;20445;-64
2021/03/22 09:26:50;;;;;;;13.75;6.35;;;;;;;7.27;62.96;101815.81;5030865;28;20116;-64
2021/03/22 09:29:31;;;;;;;14.70;6.25;;;;;;;8.05;60.15;101822.28;5046446;28;20045;-64
2021/03/22 09:31:57;;;;;;;21.42;5.63;;;;;;;8.23;59.18;101823.50;5029828;28;20486;-64
2021/03/22 09:34:22;;;;;;;20.50;5.35;;;;;;;8.31;59.48;101812.28;5046452;28;20033;-64
2021/03/22 09:36:49;;;;;;;10.73;4.87;;;;;;;8.09;59.00;101818.41;5030805;28;20033;-65
2021/03/22 09:39:14;;;;;;;14.68;5.07;;;;;;;8.14;58.65;101810.91;5030501;28;20128;-65
2021/03/22 09:41:55;;;;;;;21.43;6.40;;;;;;;8.92;57.83;101810.97;5030997;28;20137;-65
2021/03/22 09:44:23;;;;;;;22.35;6.78;;;;;;;8.77;55.93;101807.75;5030827;28;20045;-65
2021/03/22 09:47:04;;;;;;;17.13;5.72;;;;;;;8.73;56.09;101806.31;5046365;28;20041;-65
2021/03/22 09:49:52;;;;;;;16.02;5.88;;;;;;;8.32;58.13;101805.97;5029573;28;20045;-65
2021/03/22 09:52:28;;;;;;;13.40;5.90;;;;;;;8.98;57.42;101806.00;5032945;28;20847;-65
2021/03/22 09:54:55;;;;;;;11.10;5.43;;;;;;;9.15;56.31;101812.59;5033049;28;20094;-65
2021/03/22 09:57:20;;;;;;;18.77;6.35;;;;;;;9.44;55.59;101806.66;5031856;28;20418;-63
2021/03/22 10:00:15;;;;;;;16.30;4.80;;;;;;;8.96;55.16;101809.75;5032560;28;20060;-63
2021/03/22 10:02:50;;;;;;;8.05;3.88;;;;;;;9.04;55.10;101797.50;5048987;28;20370;-65
2021/03/22 10:05:24;;;;;;;20.20;5.13;;;;;;;9.87;53.13;101797.66;5050209;28;20037;-65
2021/03/22 10:08:11;;;;;;;11.65;4.43;;;;;;;10.61;50.36;101804.59;5049891;28;20118;-65
2021/03/22 10:10:41;;;;;;;11.13;4.85;;;;;;;10.76;50.58;101795.19;5027019;28;20057;-65
2021/03/22 10:13:19;;;;;;;10.20;5.30;;;;;;;10.90;49.95;101793.94;5034380;28;20124;-65
2021/03/22 10:15:53;;;;;;;16.83;4.78;;;;;;;11.66;48.33;101793.19;5033360;28;20041;-65
2021/03/22 10:18:41;;;;;;;15.38;5.07;;;;;;;11.51;48.06;101790.97;5033681;28;20049;-63
2021/03/22 10:21:12;;;;;;;10.10;4.50;;;;;;;11.94;45.25;101786.97;5034239;28;20056;-63
2021/03/22 10:23:51;;;;;;;13.20;4.47;;;;;;;11.23;48.47;101779.31;5033099;28;20044;-63
2021/03/22 10:26:29;;;;;;;12.77;4.30;;;;;;;10.88;48.41;101783.38;5033906;28;20168;-63
2021/03/22 10:29:21;;;;;;;10.88;4.57;;;;;;;10.69;48.78;101780.69;5049357;28;20362;-65
2021/03/22 10:31:59;;;;;;;10.20;4.30;;;;;;;10.96;49.40;101791.56;5049732;28;20370;-63
2021/03/22 10:34:29;;;;;;;13.27;4.80;;;;;;;11.22;47.81;101796.38;5034395;28;20040;-73
2021/03/22 10:37:02;;;;;;;14.93;4.25;;;;;;;11.44;47.43;101789.03;5034078;28;20466;-73
2021/03/22 10:39:39;;;;;;;12.45;4.15;;;;;;;11.00;47.85;101792.13;5033741;28;20060;-73
2021/03/22 10:42:39;;;;;;;10.75;3.92;;;;;;;11.38;47.94;101791.28;5049456;28;20044;-74
2021/03/22 10:45:23;;;;;;;14.75;4.20;;;;;;;11.94;46.29;101794.13;5049595;28;20044;-74
2021/03/22 10:47:49;;;;;;;10.20;4.32;;;;;;;12.71;43.14;101784.03;5049312;28;20190;-74
2021/03/22 10:50:23;;;;;;;11.80;4.75;;;;;;;13.44;42.67;101787.44;5049476;28;20347;-74
2021/03/22 10:53:07;;;;;;;8.68;4.05;;;;;;;13.16;41.53;101791.19;5033766;28;20382;-74
2021/03/22 10:55:33;;;;;;;11.43;4.10;;;;;;;13.12;41.29;101784.47;5033592;28;20081;-74
2021/03/22 10:58:01;;;;;;;14.98;3.92;;;;;;;13.26;42.09;101791.97;5033235;28;20044;-74
2021/03/22 11:00:34;;;;;;;9.93;3.65;;;;;;;11.73;42.08;101797.84;5016171;28;20434;-74
2021/03/22 11:03:03;;;;;;;9.98;3.78;;;;;;;13.08;41.25;101797.31;5032506;28;20034;-74
2021/03/22 11:05:37;;;;;;;8.18;3.80;;;;;;;12.63;39.70;101799.03;5033500;28;20041;-74
2021/03/22 11:08:23;;;;;;;7.55;3.10;;;;;;;13.25;39.98;101787.56;5033109;28;20064;-73
2021/03/22 11:10:49;;;;;;;;;;;;;;;13.33;40.53;101790.38;5049532;28;20037;-73
2021/03/22 11:13:23;;;;;;;9.27;3.50;;;;;;;13.57;38.15;101791.56;5032383;28;19940;-74
2021/03/22 11:15:49;;;;;;;11.13;3.70;;;;;;;13.00;39.05;101792.72;5033391;28;20065;-74
2021/03/22 11:18:17;;;;;;;6.32;2.90;;;;;;;13.15;39.82;101800.22;5032907;28;20034;-73
2021/03/22 11:20:49;;;;;;;7.55;3.88;;;;;;;13.34;39.42;101796.56;5048919;28;20087;-73
2021/03/22 11:23:44;;;;;;;7.18;3.60;;;;;;;13.34;38.42;101794.72;5048730;28;20033;-73
2021/03/22 11:26:11;;;;;;;8.90;3.58;;;;;;;13.18;38.09;101791.88;5033160;28;20045;-74
2021/03/22 11:28:36;;;;;;;9.30;3.63;;;;;;;12.73;39.46;101792.78;5032678;28;20038;-73
2021/03/22 11:31:25;;;;;;;10.60;3.43;;;;;;;14.17;37.85;101805.03;5048701;28;20103;-73
2021/03/22 11:34:31;;;;;;;9.18;3.20;;;;;;;13.43;37.78;101801.84;5015354;28;20443;-73
2021/03/22 11:37:14;;;;;;;9.23;3.50;;;;;;;14.12;37.01;101797.44;4991484;28;20050;-74
2021/03/22 11:39:42;;;;;;;6.25;2.65;;;;;;;13.39;38.52;101799.63;5028204;28;20378;-73
2021/03/22 11:42:19;;;;;;;10.25;3.53;;;;;;;13.57;38.43;101796.91;5032726;28;20040;-75
2021/03/22 11:44:44;;;;;;;11.00;3.47;;;;;;;14.03;38.06;101793.03;5032771;28;20095;-74
2021/03/22 11:47:36;;;;;;;6.32;3.83;;;;;;;14.81;37.32;101786.63;5032655;28;20509;-74
2021/03/22 11:50:21;;;;;;;6.63;2.85;;;;;;;13.85;38.84;101793.09;5026857;28;20114;-74